Latest METARs, TAFs and NOTAMs for FALA


---------------------------------------------------------------------------
	(OBSERVATIONS)
FALA 230100Z AUTO 18004KT //// ////// 18/15 Q1020=
FALA 230000Z AUTO 10003KT //// ////// 18/15 Q1020=
FALA 222300Z AUTO VRB02KT //// ////// 18/15 Q1021=
---------------------------------------------------------------------------
	(TERMINAL AREA FORECAST)
FALA 222200Z 2300/2324 VRB03KT 9999 BKN025
    BECMG 2300/2302 08010KT CAVOK
    BECMG 2305/2307 02013KT
    BECMG 2314/2316 VRB08KT
    PROB40 TEMPO 2315/2318 5000 TSRA FEW040CB
    BECMG 2319/2321 02007KT
    TX29/2313Z TN18/2303Z=
---------------------------------------------------------------------------
	(NOTAMS)


FALA A3739/17 STEYN CITY CENTRE, DIEPSLOOT, JOHANNESBURG (255821S
    0280044E, 255822S 0280047E): 2X CRANES (155FT AGL) WITH DAY
    AND NGT MARKINGS ERECTED. GND - 4900FT AMSL, 09 OCT 12:47
    2017 UNTIL 03 JAN 12:00 2018 ESTIMATED. CREATED: 09 OCT 12:47
    2017

FALA A3852/17 ATC TRG TAKING PLACE ON SMC 121.65 MHZ. 17 OCT
    06:40 2017 UNTIL 12 JAN 09:00 2018 ESTIMATED. CREATED: 17
    OCT 06:49 2017

FALA A3853/17 ATC TRG ON TWR 124.0 MHZ TAKING PLACE. 17 OCT 06:42
    2017 UNTIL 12 JAN 09:00 2018 ESTIMATED. CREATED: 17 OCT 06:51
    2017

FALA A4157/17 ALONG R511, RIVERGLEN (255823.63S 0280037.35E ,
    255827.47S 0280038.35E, 255833S 0280041E): 3 CRANES (200FT
    AGL) WITH DAY AND NGT MARKINGS ERECTED. GND - 4880FT AMSL,
    06 NOV 08:39 2017 UNTIL 01 FEB 10:00 2018 ESTIMATED. CREATED:
    06 NOV 08:39 2017

FALA A4322/17 RWY 07/25 WIP. 10 MIN PN TO VACATE. 23 NOV 18:00
    2017 UNTIL 24 NOV 03:00 2017 ESTIMATED. CREATED: 16 NOV 09:26
    2017

FALA A4369/17 DUE TO INSUFFICIENT FALA AIRSPACE TO THE EAST,
    NORTH EAST AND NORTH OF LIV, THE FLW SHOULD BE NOTED BY PILOTS
    FLYING IFR IN AND OUT OF FALA. IFR DEP AND ARR: ATC CLR ARE
    VALID FOR OPR INSIDE CONTROLLED AIRSPACE AND PILOTS ARE REQUIRED
    TO INFORM ATC IF UNABLE TO REMAIN WITHIN CONTROLLED AIRSPACE
    (TO OBTAIN KNOWN TFC INFO). IFR TFC LEAVING CONTROLLED AIRSPACE
    REQUIRED TO BCST INTENTIONS AND LISTEN OUT ON 125.8 MHZ FOR
    THE DURATION THEY ARE IN CONTROLLED AIRSPACE. IFR TFC ARE
    WARNED OF THE RELATIVELY HIGH VOLUME OF TFC ON THE VFR BLUE
    ROUTE AND ALONG THE CTR AND TMA BOUNDARIES. 18 NOV 08:49
    2017 UNTIL 12 FEB 09:00 2018 ESTIMATED. CREATED: 18 NOV 08:55
    2017

FALA A4421/17 HLP H1 CLSD DUE WIP. 22 NOV 15:12 2017 UNTIL 29
    NOV 14:00 2017 ESTIMATED. CREATED: 22 NOV 15:14 2017

FALA A4422/17 PRKG BAY C1 CLSD DUE WIP. 22 NOV 15:13 2017 UNTIL
    29 NOV 14:00 2017 ESTIMATED. CREATED: 22 NOV 15:14 2017

---------------------------------------------------------------------------